createdAt,value
2019-05-23T00:01:34.288Z,94282.97
2019-05-23T00:04:07.728Z,94283.44
2019-05-23T00:06:37.805Z,94280.66
2019-05-23T00:09:06.915Z,94282.32
2019-05-23T00:11:44.963Z,94279.26
2019-05-23T00:14:32.707Z,94275.23
2019-05-23T00:17:02.352Z,94279.79
2019-05-23T00:19:32.791Z,94285.54
2019-05-23T00:22:01.689Z,94283.16
2019-05-23T00:24:30.908Z,94280.41
2019-05-23T00:26:59.981Z,94279.76
2019-05-23T00:29:29.317Z,94275.42
2019-05-23T00:32:05.349Z,94272.42
2019-05-23T00:34:35.320Z,94271.01
2019-05-23T00:37:04.839Z,94269.34
2019-05-23T00:39:35.134Z,94274.18
2019-05-23T00:42:05.077Z,94274.56
2019-05-23T00:44:34.327Z,94273.22
2019-05-23T00:47:02.947Z,94272.72
2019-05-23T00:49:32.233Z,94271.63
2019-05-23T00:52:01.427Z,94279.36
2019-05-23T00:54:30.458Z,94277.27
2019-05-23T00:56:59.444Z,94277.44
2019-05-23T00:59:28.148Z,94279.31
2019-05-23T01:01:57.211Z,94267.03
2019-05-23T01:04:26.564Z,94261.95
2019-05-23T01:06:56.800Z,94274.23
2019-05-23T01:09:27.437Z,94269.25
2019-05-23T01:11:56.099Z,94264.14
2019-05-23T01:14:25.203Z,94268.41
2019-05-23T01:16:54.665Z,94266.93
2019-05-23T01:19:24.362Z,94278.23
2019-05-23T01:22:04.012Z,94277.37
2019-05-23T01:24:34.215Z,94273.51
2019-05-23T01:27:02.909Z,94274.98
2019-05-23T01:29:37.667Z,94274.18
2019-05-23T01:32:05.115Z,94273.67
2019-05-23T01:34:34.310Z,94271.74
2019-05-23T01:37:04.214Z,94271.31
2019-05-23T01:39:33.805Z,94276.52
2019-05-23T01:42:02.817Z,94272.95
2019-05-23T01:44:32.258Z,94273.67
2019-05-23T01:47:00.935Z,94272.37
2019-05-23T01:49:30.604Z,94269.92
2019-05-23T01:51:59.705Z,94272.75
2019-05-23T01:54:28.782Z,94269.50
2019-05-23T01:56:57.455Z,94269.65
2019-05-23T01:59:26.451Z,94267.77
2019-05-23T02:01:55.146Z,94270.08
2019-05-23T02:04:23.779Z,94273.31
2019-05-23T02:06:52.872Z,94270.22
2019-05-23T02:09:22.342Z,94276.94
2019-05-23T02:11:51.734Z,94274.17
2019-05-23T02:14:20.341Z,94271.15
2019-05-23T02:16:49.650Z,94264.27
2019-05-23T02:19:19.743Z,94264.86
2019-05-23T02:21:49.293Z,94270.94
2019-05-23T02:24:18.760Z,94267.91
2019-05-23T02:26:47.375Z,94263.80
2019-05-23T02:29:16.751Z,94262.28
2019-05-23T02:31:45.378Z,94268.34
2019-05-23T02:34:14.564Z,94269.34
2019-05-23T02:36:44.414Z,94268.34
2019-05-23T02:39:23.498Z,94261.34
2019-05-23T02:42:09.005Z,94271.02
2019-05-23T02:44:39.187Z,94265.73
2019-05-23T02:47:21.753Z,94264.44
2019-05-23T02:49:51.308Z,94266.16
2019-05-23T02:52:28.906Z,94259.84
2019-05-23T02:54:57.972Z,94259.31
2019-05-23T02:57:28.150Z,94258.96
2019-05-23T02:59:59.853Z,94263.27
2019-05-23T03:02:36.114Z,94256.08
2019-05-23T03:05:07.335Z,94255.77
2019-05-23T03:07:36.442Z,94247.84
2019-05-23T03:10:09.790Z,94252.88
2019-05-23T03:12:39.822Z,94253.75
2019-05-23T03:15:10.963Z,94249.28
2019-05-23T03:17:41.681Z,94249.78
2019-05-23T03:20:11.532Z,94250.28
2019-05-23T03:22:49.235Z,94244.53
2019-05-23T03:25:37.098Z,94245.83
2019-05-23T03:28:09.851Z,94253.91
2019-05-23T03:30:40.150Z,94254.39
2019-05-23T03:33:10.787Z,94257.73
2019-05-23T03:35:41.143Z,94249.44
2019-05-23T03:38:10.789Z,94244.95
2019-05-23T03:40:40.311Z,94243.88
2019-05-23T03:43:09.372Z,94243.95
2019-05-23T03:45:40.358Z,94246.69
2019-05-23T03:48:09.235Z,94243.23
2019-05-23T03:50:39.615Z,94239.19
2019-05-23T03:53:08.347Z,94242.50
2019-05-23T03:55:37.053Z,94244.09
2019-05-23T03:58:06.245Z,94239.47
2019-05-23T04:00:37.250Z,94239.59
2019-05-23T04:03:06.071Z,94244.16
2019-05-23T04:05:35.152Z,94244.46
2019-05-23T04:08:04.763Z,94245.09
2019-05-23T04:10:33.663Z,94247.56
2019-05-23T04:13:02.447Z,94251.89
2019-05-23T04:15:31.091Z,94243.30
2019-05-23T04:17:59.785Z,94248.86
2019-05-23T04:20:28.398Z,94249.73
2019-05-23T04:22:57.670Z,94256.21
2019-05-23T04:25:27.077Z,94258.72
2019-05-23T04:27:57.069Z,94254.83
2019-05-23T04:30:25.736Z,94255.78
2019-05-23T04:32:54.385Z,94261.56
2019-05-23T04:35:23.057Z,94264.14
2019-05-23T04:37:51.730Z,94264.28
2019-05-23T04:40:20.770Z,94266.97
2019-05-23T04:42:49.408Z,94269.34
2019-05-23T04:45:18.073Z,94273.91
2019-05-23T04:47:47.810Z,94269.48
2019-05-23T04:50:17.421Z,94270.28
2019-05-23T04:52:46.201Z,94268.98
2019-05-23T04:55:15.629Z,94270.04
2019-05-23T04:57:45.616Z,94279.29
2019-05-23T05:00:20.845Z,94276.77
2019-05-23T05:02:49.828Z,94281.02
2019-05-23T05:05:19.212Z,94289.08
2019-05-23T05:07:48.055Z,94280.62
2019-05-23T05:10:19.955Z,94276.58
2019-05-23T05:12:48.813Z,94284.94
2019-05-23T05:15:17.625Z,94296.65
2019-05-23T05:17:48.377Z,94297.92
2019-05-23T05:20:17.503Z,94303.34
2019-05-23T05:22:46.319Z,94307.90
2019-05-23T05:25:15.977Z,94308.27
2019-05-23T05:27:45.034Z,94305.73
2019-05-23T05:30:13.902Z,94309.50
2019-05-23T05:32:45.216Z,94306.02
2019-05-23T05:35:14.465Z,94308.30
2019-05-23T05:37:43.630Z,94309.18
2019-05-23T05:40:13.211Z,94317.22
2019-05-23T05:42:41.992Z,94308.83
2019-05-23T05:45:11.690Z,94312.30
2019-05-23T05:47:40.746Z,94315.63
2019-05-23T05:50:11.041Z,94315.54
2019-05-23T05:52:40.363Z,94326.82
2019-05-23T05:55:09.849Z,94321.09
2019-05-23T05:57:38.479Z,94325.61
2019-05-23T06:00:12.963Z,94324.78
2019-05-23T06:02:42.188Z,94324.94
2019-05-23T06:05:12.543Z,94330.38
2019-05-23T06:07:45.241Z,94322.44
2019-05-23T06:10:15.867Z,94323.22
2019-05-23T06:12:44.562Z,94324.72
2019-05-23T06:15:13.296Z,94325.55
2019-05-23T06:17:42.946Z,94321.55
2019-05-23T06:20:11.667Z,94325.04
2019-05-23T06:22:40.971Z,94321.25
2019-05-23T06:25:10.399Z,94332.27
2019-05-23T06:27:40.617Z,94334.05
2019-05-23T06:30:12.582Z,94328.98
2019-05-23T06:32:41.379Z,94330.16
2019-05-23T06:35:10.456Z,94325.55
2019-05-23T06:37:40.007Z,94325.31
2019-05-23T06:40:11.939Z,94331.13
2019-05-23T06:42:40.566Z,94328.78
2019-05-23T06:45:11.434Z,94333.73
2019-05-23T06:47:40.646Z,94323.45
2019-05-23T06:50:15.992Z,94319.69
2019-05-23T06:52:44.834Z,94320.31
2019-05-23T06:55:13.845Z,94319.94
2019-05-23T06:57:42.485Z,94320.09
2019-05-23T07:00:13.477Z,94326.52
2019-05-23T07:02:42.817Z,94324.66
2019-05-23T07:05:11.717Z,94321.23
2019-05-23T07:07:41.488Z,94321.73
2019-05-23T07:10:10.701Z,94328.16
2019-05-23T07:12:39.314Z,94327.52
2019-05-23T07:15:10.164Z,94327.17
2019-05-23T07:17:39.323Z,94330.92
2019-05-23T07:20:09.136Z,94330.59
2019-05-23T07:22:37.888Z,94328.48
2019-05-23T07:25:09.945Z,94333.66
2019-05-23T07:27:38.823Z,94327.23
2019-05-23T07:30:14.182Z,94330.91
2019-05-23T07:32:42.838Z,94325.00
2019-05-23T07:35:12.989Z,94326.61
2019-05-23T07:37:41.690Z,94324.47
2019-05-23T07:40:10.779Z,94333.77
2019-05-23T07:42:39.908Z,94332.84
2019-05-23T07:45:10.300Z,94332.72
2019-05-23T07:47:40.238Z,94336.81
2019-05-23T07:50:09.428Z,94344.33
2019-05-23T07:52:40.330Z,94334.34
2019-05-23T07:55:16.802Z,94333.03
2019-05-23T07:57:45.631Z,94333.54
2019-05-23T08:00:25.312Z,94332.72
2019-05-23T08:02:54.624Z,94341.02
2019-05-23T08:05:23.933Z,94332.77
2019-05-23T08:07:53.509Z,94337.84
2019-05-23T08:10:32.991Z,94331.47
2019-05-23T08:12:53.782Z,94331.82
2019-05-23T08:15:22.500Z,94331.41
2019-05-23T08:17:52.559Z,94329.61
2019-05-23T08:20:21.688Z,94336.41
2019-05-23T08:22:50.387Z,94320.88
2019-05-23T08:25:19.110Z,94325.69
2019-05-23T08:27:48.362Z,94322.85
2019-05-23T08:30:19.327Z,94325.30
2019-05-23T08:32:48.604Z,94326.61
2019-05-23T08:35:18.406Z,94334.02
2019-05-23T08:37:47.346Z,94326.53
2019-05-23T08:40:18.139Z,94330.53
2019-05-23T08:42:47.875Z,94322.53
2019-05-23T08:45:17.247Z,94327.39
2019-05-23T08:47:45.945Z,94326.84
2019-05-23T08:50:15.268Z,94319.38
2019-05-23T08:52:43.975Z,94315.94
2019-05-23T08:55:21.944Z,94316.80
2019-05-23T08:57:52.334Z,94314.19
2019-05-23T09:00:22.903Z,94310.08
2019-05-23T09:02:53.545Z,94314.75
2019-05-23T09:05:23.797Z,94315.66
2019-05-23T09:07:52.522Z,94318.34
2019-05-23T09:10:21.188Z,94318.61
2019-05-23T09:12:49.872Z,94311.67
2019-05-23T09:15:18.815Z,94309.13
2019-05-23T09:17:53.877Z,94305.80
2019-05-23T09:20:19.707Z,94304.91
2019-05-23T09:22:48.332Z,94313.91
2019-05-23T09:25:17.362Z,94309.84
2019-05-23T09:27:46.643Z,94308.23
2019-05-23T09:30:16.634Z,94304.42
2019-05-23T09:32:45.659Z,94306.38
2019-05-23T09:35:21.065Z,94301.93
2019-05-23T09:37:46.693Z,94293.06
2019-05-23T09:40:15.458Z,94307.02
2019-05-23T09:42:44.089Z,94310.97
2019-05-23T09:45:12.770Z,94302.97
2019-05-23T09:47:41.736Z,94313.17
2019-05-23T09:50:14.034Z,94305.98
2019-05-23T09:52:42.706Z,94302.75
2019-05-23T09:55:11.522Z,94306.53
2019-05-23T09:57:40.199Z,94308.91
2019-05-23T10:00:11.142Z,94310.61
2019-05-23T10:02:39.851Z,94304.25
2019-05-23T10:05:11.900Z,94301.87
2019-05-23T10:07:42.097Z,94302.83
2019-05-23T10:10:11.675Z,94299.16
2019-05-23T10:12:40.313Z,94295.80
2019-05-23T10:15:12.488Z,94324.81
2019-05-23T10:17:41.187Z,94293.12
2019-05-23T10:20:09.881Z,94299.41
2019-05-23T10:22:38.565Z,94298.29
2019-05-23T10:25:07.563Z,94309.07
2019-05-23T10:27:36.252Z,94299.95
2019-05-23T10:30:08.788Z,94301.22
2019-05-23T10:32:37.418Z,94293.00
2019-05-23T10:35:08.128Z,94304.52
2019-05-23T10:37:37.168Z,94289.18
2019-05-23T10:40:05.854Z,94287.39
2019-05-23T10:42:35.021Z,94278.88
2019-05-23T10:45:04.506Z,94278.55
2019-05-23T10:47:33.635Z,94277.50
2019-05-23T10:50:07.709Z,94289.72
2019-05-23T10:52:33.562Z,94282.11
2019-05-23T10:55:02.273Z,94272.02
2019-05-23T10:57:31.373Z,94271.50
2019-05-23T11:00:02.041Z,94267.46
2019-05-23T11:02:31.012Z,94259.19
2019-05-23T11:05:11.593Z,94269.11
2019-05-23T11:07:30.716Z,94270.73
2019-05-23T11:09:59.336Z,94268.95
2019-05-23T11:12:28.024Z,94269.95
2019-05-23T11:14:56.650Z,94264.17
2019-05-23T11:17:25.318Z,94255.06
2019-05-23T11:19:53.928Z,94250.58
2019-05-23T11:22:22.608Z,94252.88
2019-05-23T11:24:51.232Z,94255.27
2019-05-23T11:27:20.726Z,94253.51
2019-05-23T11:29:49.405Z,94245.78
2019-05-23T11:32:20.303Z,94235.52
2019-05-23T11:34:48.425Z,94235.30
2019-05-23T11:37:17.261Z,94241.63
2019-05-23T11:39:49.518Z,94230.08
2019-05-23T11:42:16.288Z,94238.73
2019-05-23T11:44:45.087Z,94235.33
2019-05-23T11:47:14.319Z,94229.02
2019-05-23T11:49:44.308Z,94223.06
2019-05-23T11:52:15.003Z,94224.81
2019-05-23T11:54:43.624Z,94226.36
2019-05-23T11:57:16.040Z,94213.92
2019-05-23T11:59:44.965Z,94211.54
2019-05-23T12:02:30.430Z,94207.36
2019-05-23T12:05:00.681Z,94201.34
2019-05-23T12:07:30.971Z,94200.56
2019-05-23T12:09:59.679Z,94209.47
2019-05-23T12:12:30.169Z,94212.07
2019-05-23T12:14:58.845Z,94206.56
2019-05-23T12:17:29.264Z,94213.95
2019-05-23T12:19:58.143Z,94202.06
2019-05-23T12:22:28.567Z,94211.66
2019-05-23T12:24:57.665Z,94209.81
2019-05-23T12:27:26.395Z,94203.20
2019-05-23T12:29:55.071Z,94196.28
2019-05-23T12:32:24.123Z,94187.70
2019-05-23T12:35:09.258Z,94202.99
2019-05-23T12:37:23.458Z,94206.39
2019-05-23T12:39:52.133Z,94201.68
2019-05-23T12:42:21.152Z,94195.86
2019-05-23T12:44:49.857Z,94188.52
2019-05-23T12:47:20.053Z,94202.18
2019-05-23T12:49:50.444Z,94207.41
2019-05-23T12:52:19.100Z,94195.38
2019-05-23T12:54:47.795Z,94190.63
2019-05-23T12:57:16.754Z,94190.09
2019-05-23T12:59:46.985Z,94196.94
2019-05-23T13:02:17.201Z,94192.18
2019-05-23T13:04:45.984Z,94191.17
2019-05-23T13:07:15.712Z,94197.46
2019-05-23T13:09:44.582Z,94187.70
2019-05-23T13:12:16.421Z,94187.73
2019-05-23T13:14:44.438Z,94179.59
2019-05-23T13:17:13.102Z,94173.76
2019-05-23T13:19:41.987Z,94171.92
2019-05-23T13:22:12.266Z,94170.02
2019-05-23T13:24:51.962Z,94164.24
2019-05-23T13:27:11.310Z,94158.45
2019-05-23T13:29:39.944Z,94155.37
2019-05-23T13:32:08.642Z,94160.38
2019-05-23T13:34:37.865Z,94160.92
2019-05-23T13:37:08.309Z,94149.59
2019-05-23T13:39:37.322Z,94155.14
2019-05-23T13:42:05.995Z,94156.20
2019-05-23T13:44:36.474Z,94155.93
2019-05-23T13:47:05.308Z,94150.38
2019-05-23T13:49:34.490Z,94149.07
2019-05-23T13:52:03.220Z,94152.23
2019-05-23T13:54:35.885Z,94149.28
2019-05-23T13:57:03.508Z,94144.30
2019-05-23T13:59:32.333Z,94144.02
2019-05-23T14:02:01.280Z,94142.14
2019-05-23T14:04:30.103Z,94148.78
2019-05-23T14:06:58.750Z,94147.14
2019-05-23T14:09:27.702Z,94145.61
2019-05-23T14:12:20.134Z,94145.39
2019-05-23T14:14:27.293Z,94138.98
2019-05-23T14:17:15.832Z,94140.19
2019-05-23T14:19:44.748Z,94139.28
2019-05-23T14:22:13.536Z,94142.91
2019-05-23T14:24:42.184Z,94143.46
2019-05-23T14:27:15.561Z,94134.07
2019-05-23T14:29:44.280Z,94132.87
2019-05-23T14:32:23.359Z,94131.03
2019-05-23T14:34:55.649Z,94137.83
2019-05-23T14:37:31.816Z,94140.84
2019-05-23T14:40:02.247Z,94139.09
2019-05-23T14:42:32.516Z,94131.96
2019-05-23T14:45:01.134Z,94132.06
2019-05-23T14:47:43.709Z,94134.66
2019-05-23T14:50:30.206Z,94129.00
2019-05-23T14:53:00.488Z,94133.55
2019-05-23T14:55:29.108Z,94134.30
2019-05-23T14:57:57.945Z,94131.14
2019-05-23T15:00:28.349Z,94129.91
2019-05-23T15:02:57.048Z,94133.39
2019-05-23T15:05:25.726Z,94134.64
2019-05-23T15:07:54.361Z,94132.77
2019-05-23T15:10:23.147Z,94127.09
2019-05-23T15:12:51.895Z,94132.00
2019-05-23T15:15:20.580Z,94138.92
2019-05-23T15:17:49.206Z,94123.23
2019-05-23T15:20:17.915Z,94125.86
2019-05-23T15:22:46.572Z,94129.79
2019-05-23T15:25:15.866Z,94137.17
2019-05-23T15:27:44.571Z,94139.09
2019-05-23T15:30:13.663Z,94127.88
2019-05-23T15:32:42.387Z,94129.83
2019-05-23T15:35:11.142Z,94126.29
2019-05-23T15:37:39.929Z,94124.09
2019-05-23T15:40:08.727Z,94122.70
2019-05-23T15:42:37.411Z,94124.70
2019-05-23T15:45:07.886Z,94121.30
2019-05-23T15:47:36.672Z,94122.53
2019-05-23T15:50:11.291Z,94125.02
2019-05-23T15:52:42.251Z,94126.62
2019-05-23T15:55:13.008Z,94134.34
2019-05-23T15:57:43.285Z,94120.34
2019-05-23T16:00:28.676Z,94116.72
2019-05-23T16:03:01.560Z,94120.66
2019-05-23T16:05:31.341Z,94115.70
2019-05-23T16:08:00.004Z,94110.14
2019-05-23T16:10:29.615Z,94113.07
2019-05-23T16:12:59.042Z,94109.08
2019-05-23T16:15:28.067Z,94112.19
2019-05-23T16:17:57.505Z,94115.17
2019-05-23T16:20:26.593Z,94108.34
2019-05-23T16:22:55.336Z,94113.62
2019-05-23T16:25:24.115Z,94114.67
2019-05-23T16:27:53.825Z,94117.83
2019-05-23T16:30:24.023Z,94110.73
2019-05-23T16:32:52.752Z,94113.10
2019-05-23T16:35:21.554Z,94119.41
2019-05-23T16:37:50.229Z,94118.86
2019-05-23T16:40:20.708Z,94123.08
2019-05-23T16:42:49.454Z,94118.84
2019-05-23T16:45:18.356Z,94113.61
2019-05-23T16:47:47.113Z,94119.38
2019-05-23T16:50:16.214Z,94114.41
2019-05-23T16:52:44.880Z,94124.37
2019-05-23T16:55:17.298Z,94123.59
2019-05-23T16:57:50.362Z,94121.22
2019-05-23T17:00:21.750Z,94119.89
2019-05-23T17:02:58.531Z,94122.52
2019-05-23T17:05:31.639Z,94125.15
2019-05-23T17:08:04.401Z,94125.69
2019-05-23T17:10:39.938Z,94130.91
2019-05-23T17:13:18.949Z,94133.25
2019-05-23T17:15:51.909Z,94122.20
2019-05-23T17:18:25.063Z,94126.66
2019-05-23T17:20:55.454Z,94126.09
2019-05-23T17:23:52.021Z,94121.91
2019-05-23T17:26:26.660Z,94130.30
2019-05-23T17:28:56.497Z,94132.17
2019-05-23T17:31:39.062Z,94134.76
2019-05-23T17:34:09.536Z,94131.59
2019-05-23T17:36:38.259Z,94135.27
2019-05-23T17:39:09.616Z,94134.13
2019-05-23T17:41:39.875Z,94141.69
2019-05-23T17:44:08.617Z,94139.33
2019-05-23T17:46:37.413Z,94139.09
2019-05-23T17:49:06.691Z,94140.13
2019-05-23T17:51:35.491Z,94139.09
2019-05-23T17:54:04.511Z,94143.77
2019-05-23T17:56:33.171Z,94146.70
2019-05-23T17:59:01.938Z,94144.83
2019-05-23T18:01:32.558Z,94145.05
2019-05-23T18:04:01.460Z,94142.66
2019-05-23T18:06:30.185Z,94147.33
2019-05-23T18:08:59.299Z,94144.70
2019-05-23T18:11:30.220Z,94149.67
2019-05-23T18:13:59.743Z,94148.09
2019-05-23T18:16:28.784Z,94142.77
2019-05-23T18:18:57.419Z,94152.19
2019-05-23T18:21:26.440Z,94158.14
2019-05-23T18:23:55.969Z,94163.27
2019-05-23T18:26:29.704Z,94164.80
2019-05-23T18:28:58.397Z,94160.23
2019-05-23T18:31:28.658Z,94163.27
2019-05-23T18:33:58.103Z,94166.86
2019-05-23T18:36:27.584Z,94171.58
2019-05-23T18:38:56.452Z,94167.84
2019-05-23T18:41:25.200Z,94170.22
2019-05-23T18:43:54.906Z,94181.41
2019-05-23T18:46:28.625Z,94182.09
2019-05-23T18:48:57.404Z,94182.39
2019-05-23T18:51:26.297Z,94176.64
2019-05-23T18:53:55.079Z,94180.43
2019-05-23T18:56:24.137Z,94181.55
2019-05-23T18:58:54.378Z,94186.46
2019-05-23T19:01:24.682Z,94185.89
2019-05-23T19:03:53.384Z,94185.70
2019-05-23T19:06:22.401Z,94185.95
2019-05-23T19:08:52.114Z,94188.89
2019-05-23T19:11:22.044Z,94192.13
2019-05-23T19:13:53.746Z,94194.09
2019-05-23T19:16:22.608Z,94194.46
2019-05-23T19:18:51.261Z,94194.35
2019-05-23T19:21:20.859Z,94197.33
2019-05-23T19:23:49.485Z,94194.91
2019-05-23T19:26:18.454Z,94206.00
2019-05-23T19:28:47.425Z,94210.55
2019-05-23T19:31:16.403Z,94208.64
2019-05-23T19:33:46.068Z,94209.47
2019-05-23T19:36:15.351Z,94215.73
2019-05-23T19:38:44.135Z,94216.37
2019-05-23T19:41:14.045Z,94217.63
2019-05-23T19:43:43.131Z,94225.57
2019-05-23T19:46:12.426Z,94225.27
2019-05-23T19:48:42.993Z,94228.44
2019-05-23T19:51:11.936Z,94224.34
2019-05-23T19:53:41.206Z,94220.53
2019-05-23T19:56:10.394Z,94222.35
2019-05-23T19:58:39.519Z,94223.42
2019-05-23T20:01:08.368Z,94232.67
2019-05-23T20:03:37.265Z,94233.73
2019-05-23T20:06:08.587Z,94238.16
2019-05-23T20:08:37.333Z,94238.00
2019-05-23T20:11:06.112Z,94240.48
2019-05-23T20:13:34.724Z,94238.33
2019-05-23T20:16:03.475Z,94242.94
2019-05-23T20:18:32.595Z,94245.02
2019-05-23T20:21:01.440Z,94241.05
2019-05-23T20:23:30.115Z,94250.57
2019-05-23T20:25:58.756Z,94242.12
2019-05-23T20:28:27.511Z,94247.84
2019-05-23T20:30:56.323Z,94242.41
2019-05-23T20:33:25.371Z,94243.59
2019-05-23T20:35:53.973Z,94243.59
2019-05-23T20:38:26.234Z,94238.50
2019-05-23T20:40:55.091Z,94242.48
2019-05-23T20:43:23.764Z,94241.23
2019-05-23T20:45:52.547Z,94241.68
2019-05-23T20:48:21.791Z,94245.05
2019-05-23T20:50:50.452Z,94243.52
2019-05-23T20:53:19.061Z,94245.97
2019-05-23T20:55:47.756Z,94256.09
2019-05-23T20:58:16.766Z,94251.52
2019-05-23T21:00:49.832Z,94249.48
2019-05-23T21:03:18.982Z,94244.88
2019-05-23T21:05:47.641Z,94239.83
2019-05-23T21:08:16.331Z,94241.48
2019-05-23T21:10:48.950Z,94249.95
2019-05-23T21:13:18.132Z,94243.20
2019-05-23T21:15:47.237Z,94245.07
2019-05-23T21:18:16.015Z,94242.11
2019-05-23T21:20:44.654Z,94244.64
2019-05-23T21:23:13.535Z,94240.73
2019-05-23T21:25:43.868Z,94243.20
2019-05-23T21:28:12.494Z,94248.98
2019-05-23T21:30:41.245Z,94244.50
2019-05-23T21:33:10.482Z,94246.30
2019-05-23T21:35:39.107Z,94245.80
2019-05-23T21:38:07.807Z,94243.48
2019-05-23T21:40:39.568Z,94242.05
2019-05-23T21:43:08.322Z,94247.63
2019-05-23T21:45:36.936Z,94249.93
2019-05-23T21:48:05.625Z,94258.52
2019-05-23T21:50:34.314Z,94257.65
2019-05-23T21:53:03.426Z,94266.59
2019-05-23T21:55:42.614Z,94262.67
2019-05-23T21:58:13.536Z,94262.84
2019-05-23T22:01:07.830Z,94268.34
2019-05-23T22:03:39.571Z,94268.97
2019-05-23T22:06:12.670Z,94274.48
2019-05-23T22:08:41.895Z,94273.73
2019-05-23T22:11:11.416Z,94275.03
2019-05-23T22:13:40.142Z,94274.66
2019-05-23T22:16:09.324Z,94268.25
2019-05-23T22:18:38.191Z,94264.89
2019-05-23T22:21:06.817Z,94267.33
2019-05-23T22:23:35.906Z,94267.04
2019-05-23T22:26:04.595Z,94268.67
2019-05-23T22:28:33.318Z,94269.37
2019-05-23T22:31:01.911Z,94271.95
2019-05-23T22:33:32.253Z,94268.97
2019-05-23T22:36:01.205Z,94267.95
2019-05-23T22:38:29.890Z,94265.66
2019-05-23T22:40:58.504Z,94258.91
2019-05-23T22:43:27.698Z,94259.11
2019-05-23T22:45:56.481Z,94266.69
2019-05-23T22:48:25.177Z,94262.80
2019-05-23T22:50:53.808Z,94265.20
2019-05-23T22:53:22.506Z,94258.52
2019-05-23T22:55:51.149Z,94254.95
2019-05-23T22:58:19.832Z,94254.63
2019-05-23T23:00:49.342Z,94261.92
2019-05-23T23:03:18.049Z,94260.25
2019-05-23T23:05:46.669Z,94265.44
2019-05-23T23:08:15.633Z,94266.92
2019-05-23T23:10:44.474Z,94266.23
2019-05-23T23:13:13.424Z,94266.81
2019-05-23T23:15:42.096Z,94261.98
2019-05-23T23:18:11.015Z,94255.19
2019-05-23T23:20:39.693Z,94264.17
2019-05-23T23:23:08.299Z,94261.34
2019-05-23T23:25:37.185Z,94258.19
2019-05-23T23:28:06.151Z,94256.98
2019-05-23T23:30:36.401Z,94261.63
2019-05-23T23:33:05.072Z,94256.91
2019-05-23T23:35:34.835Z,94257.80
2019-05-23T23:38:03.581Z,94254.77
2019-05-23T23:40:32.687Z,94249.69
2019-05-23T23:43:01.290Z,94254.67
2019-05-23T23:45:50.204Z,94255.84
2019-05-23T23:48:36.560Z,94253.87
2019-05-23T23:51:23.217Z,94262.25
2019-05-23T23:54:09.815Z,94264.67
2019-05-23T23:56:56.194Z,94261.69
2019-05-23T23:59:24.046Z,94259.09
